sensor_id;sensor_type;location;lat;lon;timestamp;temperature;humidity
19968;DHT22;10145;49.152;9.282;2022-12-07T05:01:06;3.20;99.90
19968;DHT22;10145;49.152;9.282;2022-12-07T05:03:32;3.20;99.90
19968;DHT22;10145;49.152;9.282;2022-12-07T05:05:57;3.20;99.90
19968;DHT22;10145;49.152;9.282;2022-12-07T05:08:23;3.10;99.90
19968;DHT22;10145;49.152;9.282;2022-12-07T05:10:49;3.10;99.90
19968;DHT22;10145;49.152;9.282;2022-12-07T05:13:15;3.10;99.90
19968;DHT22;10145;49.152;9.282;2022-12-07T05:15:40;3.20;99.90
19968;DHT22;10145;49.152;9.282;2022-12-07T05:18:07;3.20;99.90
19968;DHT22;10145;49.152;9.282;2022-12-07T05:20:34;3.20;99.90
19968;DHT22;10145;49.152;9.282;2022-12-07T05:22:59;3.30;99.90
19968;DHT22;10145;49.152;9.282;2022-12-07T05:25:25;3.20;99.90
19968;DHT22;10145;49.152;9.282;2022-12-07T05:27:51;3.20;99.90
19968;DHT22;10145;49.152;9.282;2022-12-07T05:30:16;3.20;99.90
19968;DHT22;10145;49.152;9.282;2022-12-07T05:32:42;3.20;99.90
19968;DHT22;10145;49.152;9.282;2022-12-07T05:35:08;3.20;99.90
19968;DHT22;10145;49.152;9.282;2022-12-07T05:37:33;3.20;99.90
19968;DHT22;10145;49.152;9.282;2022-12-07T05:39:59;3.30;99.90
19968;DHT22;10145;49.152;9.282;2022-12-07T05:42:24;3.30;99.90
19968;DHT22;10145;49.152;9.282;2022-12-07T05:44:50;3.30;99.90
19968;DHT22;10145;49.152;9.282;2022-12-07T05:47:16;3.30;99.90
19968;DHT22;10145;49.152;9.282;2022-12-07T05:49:41;3.30;99.90
19968;DHT22;10145;49.152;9.282;2022-12-07T05:52:07;3.30;99.90
19968;DHT22;10145;49.152;9.282;2022-12-07T05:54:33;3.20;99.90
19968;DHT22;10145;49.152;9.282;2022-12-07T05:56:58;3.30;99.90
19968;DHT22;10145;49.152;9.282;2022-12-07T05:59:25;3.30;99.90
19968;DHT22;10145;49.152;9.282;2022-12-07T06:02:04;3.30;99.90
19968;DHT22;10145;49.152;9.282;2022-12-07T06:04:33;3.30;99.90
19968;DHT22;10145;49.152;9.282;2022-12-07T06:06:59;3.30;99.90
19968;DHT22;10145;49.152;9.282;2022-12-07T06:09:26;3.30;99.90
19968;DHT22;10145;49.152;9.282;2022-12-07T06:11:52;3.30;99.90
19968;DHT22;10145;49.152;9.282;2022-12-07T06:14:36;3.30;99.90
19968;DHT22;10145;49.152;9.282;2022-12-07T06:17:02;3.30;99.90
19968;DHT22;10145;49.152;9.282;2022-12-07T06:19:28;3.30;99.90
19968;DHT22;10145;49.152;9.282;2022-12-07T06:21:54;3.30;99.90
19968;DHT22;10145;49.152;9.282;2022-12-07T06:24:19;3.30;99.90
19968;DHT22;10145;49.152;9.282;2022-12-07T06:26:45;3.30;99.90
19968;DHT22;10145;49.152;9.282;2022-12-07T06:29:11;3.30;99.90
19968;DHT22;10145;49.152;9.282;2022-12-07T06:31:38;3.30;99.90
19968;DHT22;10145;49.152;9.282;2022-12-07T06:34:06;3.30;99.90
19968;DHT22;10145;49.152;9.282;2022-12-07T06:36:32;3.40;99.90
19968;DHT22;10145;49.152;9.282;2022-12-07T06:38:57;3.40;99.90
19968;DHT22;10145;49.152;9.282;2022-12-07T06:41:23;3.40;99.90
19968;DHT22;10145;49.152;9.282;2022-12-07T06:43:48;3.40;99.90
19968;DHT22;10145;49.152;9.282;2022-12-07T06:46:15;3.40;99.90
19968;DHT22;10145;49.152;9.282;2022-12-07T06:48:41;3.40;99.90
19968;DHT22;10145;49.152;9.282;2022-12-07T06:51:07;3.40;99.90
19968;DHT22;10145;49.152;9.282;2022-12-07T06:53:33;3.40;99.90
19968;DHT22;10145;49.152;9.282;2022-12-07T06:55:58;3.40;99.90
19968;DHT22;10145;49.152;9.282;2022-12-07T06:58:24;3.40;99.90
19968;DHT22;10145;49.152;9.282;2022-12-07T07:00:50;3.40;99.90
19968;DHT22;10145;49.152;9.282;2022-12-07T07:03:16;3.40;99.90
19968;DHT22;10145;49.152;9.282;2022-12-07T07:05:42;3.40;99.90
19968;DHT22;10145;49.152;9.282;2022-12-07T07:08:09;3.40;99.90
19968;DHT22;10145;49.152;9.282;2022-12-07T07:10:35;3.40;99.90
19968;DHT22;10145;49.152;9.282;2022-12-07T07:13:01;3.40;99.90
19968;DHT22;10145;49.152;9.282;2022-12-07T07:15:26;3.40;99.90
19968;DHT22;10145;49.152;9.282;2022-12-07T07:17:52;3.40;99.90
19968;DHT22;10145;49.152;9.282;2022-12-07T07:20:18;3.40;99.90
19968;DHT22;10145;49.152;9.282;2022-12-07T07:22:44;3.50;99.90
19968;DHT22;10145;49.152;9.282;2022-12-07T07:25:09;3.50;99.90
19968;DHT22;10145;49.152;9.282;2022-12-07T07:27:35;3.50;99.90
19968;DHT22;10145;49.152;9.282;2022-12-07T07:30:00;3.50;99.90
19968;DHT22;10145;49.152;9.282;2022-12-07T07:32:26;3.50;99.90
19968;DHT22;10145;49.152;9.282;2022-12-07T07:34:52;3.50;99.90
19968;DHT22;10145;49.152;9.282;2022-12-07T07:37:17;3.60;99.90
19968;DHT22;10145;49.152;9.282;2022-12-07T07:39:43;3.60;99.90
19968;DHT22;10145;49.152;9.282;2022-12-07T07:42:08;3.60;99.90
19968;DHT22;10145;49.152;9.282;2022-12-07T07:44:34;3.60;99.90
19968;DHT22;10145;49.152;9.282;2022-12-07T07:47:00;3.60;99.90
19968;DHT22;10145;49.152;9.282;2022-12-07T07:49:26;3.60;99.90
19968;DHT22;10145;49.152;9.282;2022-12-07T07:51:52;3.60;99.90
19968;DHT22;10145;49.152;9.282;2022-12-07T07:54:17;3.70;99.90
19968;DHT22;10145;49.152;9.282;2022-12-07T07:56:46;3.70;99.90
19968;DHT22;10145;49.152;9.282;2022-12-07T07:59:11;3.70;99.90
19968;DHT22;10145;49.152;9.282;2022-12-07T08:01:37;3.70;99.90
19968;DHT22;10145;49.152;9.282;2022-12-07T08:04:03;3.80;99.90
19968;DHT22;10145;49.152;9.282;2022-12-07T08:06:28;3.80;99.90
19968;DHT22;10145;49.152;9.282;2022-12-07T08:08:54;3.90;99.90
19968;DHT22;10145;49.152;9.282;2022-12-07T08:11:19;3.90;99.90
19968;DHT22;10145;49.152;9.282;2022-12-07T08:13:46;3.90;99.90
19968;DHT22;10145;49.152;9.282;2022-12-07T08:16:14;4.00;99.90
19968;DHT22;10145;49.152;9.282;2022-12-07T08:18:41;4.00;99.90
19968;DHT22;10145;49.152;9.282;2022-12-07T08:21:09;4.10;99.90
19968;DHT22;10145;49.152;9.282;2022-12-07T08:23:35;4.10;99.90
19968;DHT22;10145;49.152;9.282;2022-12-07T08:26:03;4.20;99.90
19968;DHT22;10145;49.152;9.282;2022-12-07T08:28:29;4.30;99.90
19968;DHT22;10145;49.152;9.282;2022-12-07T08:31:03;4.30;99.90
19968;DHT22;10145;49.152;9.282;2022-12-07T08:33:29;4.30;99.90
19968;DHT22;10145;49.152;9.282;2022-12-07T08:36:05;4.40;99.90
19968;DHT22;10145;49.152;9.282;2022-12-07T08:38:31;4.40;99.90
19968;DHT22;10145;49.152;9.282;2022-12-07T08:40:58;4.50;99.90
19968;DHT22;10145;49.152;9.282;2022-12-07T08:43:24;4.50;99.90
19968;DHT22;10145;49.152;9.282;2022-12-07T08:45:56;4.50;99.90
19968;DHT22;10145;49.152;9.282;2022-12-07T08:48:28;4.50;99.90
19968;DHT22;10145;49.152;9.282;2022-12-07T08:50:53;4.50;99.90
19968;DHT22;10145;49.152;9.282;2022-12-07T08:53:19;4.40;99.90
19968;DHT22;10145;49.152;9.282;2022-12-07T08:55:46;4.40;99.90
19968;DHT22;10145;49.152;9.282;2022-12-07T08:58:12;4.40;99.90
19968;DHT22;10145;49.152;9.282;2022-12-07T09:00:37;4.40;99.90
19968;DHT22;10145;49.152;9.282;2022-12-07T09:03:03;4.40;99.90
19968;DHT22;10145;49.152;9.282;2022-12-07T09:05:28;4.20;99.90
19968;DHT22;10145;49.152;9.282;2022-12-07T09:07:57;4.30;99.90
19968;DHT22;10145;49.152;9.282;2022-12-07T09:10:24;4.30;99.90
19968;DHT22;10145;49.152;9.282;2022-12-07T09:12:51;4.30;99.90
19968;DHT22;10145;49.152;9.282;2022-12-07T09:15:17;4.40;99.90
19968;DHT22;10145;49.152;9.282;2022-12-07T09:17:42;4.50;99.90
19968;DHT22;10145;49.152;9.282;2022-12-07T09:20:08;4.60;99.90
19968;DHT22;10145;49.152;9.282;2022-12-07T09:22:34;4.70;99.90
19968;DHT22;10145;49.152;9.282;2022-12-07T09:25:00;4.70;99.90
19968;DHT22;10145;49.152;9.282;2022-12-07T09:27:27;4.80;99.90
19968;DHT22;10145;49.152;9.282;2022-12-07T09:29:52;4.90;99.90
19968;DHT22;10145;49.152;9.282;2022-12-07T09:32:18;4.90;99.90
19968;DHT22;10145;49.152;9.282;2022-12-07T09:34:44;5.00;99.90
19968;DHT22;10145;49.152;9.282;2022-12-07T09:37:09;5.10;99.90
19968;DHT22;10145;49.152;9.282;2022-12-07T09:39:38;5.20;99.90
19968;DHT22;10145;49.152;9.282;2022-12-07T09:42:05;5.30;99.90
19968;DHT22;10145;49.152;9.282;2022-12-07T09:44:31;5.40;99.90
19968;DHT22;10145;49.152;9.282;2022-12-07T09:46:57;5.60;99.90
19968;DHT22;10145;49.152;9.282;2022-12-07T09:49:24;5.60;99.90
19968;DHT22;10145;49.152;9.282;2022-12-07T09:52:48;5.80;99.90
19968;DHT22;10145;49.152;9.282;2022-12-07T09:54:49;5.90;99.90
19968;DHT22;10145;49.152;9.282;2022-12-07T09:57:15;6.00;99.90
19968;DHT22;10145;49.152;9.282;2022-12-07T09:59:41;6.10;99.90
19968;DHT22;10145;49.152;9.282;2022-12-07T10:02:36;6.20;99.90
19968;DHT22;10145;49.152;9.282;2022-12-07T10:05:06;6.30;99.90
19968;DHT22;10145;49.152;9.282;2022-12-07T10:07:32;6.20;99.90
19968;DHT22;10145;49.152;9.282;2022-12-07T10:09:58;6.10;99.90
19968;DHT22;10145;49.152;9.282;2022-12-07T10:12:23;6.10;99.90
19968;DHT22;10145;49.152;9.282;2022-12-07T10:15:04;5.90;99.90
19968;DHT22;10145;49.152;9.282;2022-12-07T10:17:39;5.90;99.90
19968;DHT22;10145;49.152;9.282;2022-12-07T10:20:21;5.80;99.90
19968;DHT22;10145;49.152;9.282;2022-12-07T10:23:05;5.80;99.90
19968;DHT22;10145;49.152;9.282;2022-12-07T10:25:37;5.80;99.90
19968;DHT22;10145;49.152;9.282;2022-12-07T10:28:13;5.70;99.90
19968;DHT22;10145;49.152;9.282;2022-12-07T10:30:57;5.70;99.90
19968;DHT22;10145;49.152;9.282;2022-12-07T10:36:00;5.70;99.90
19968;DHT22;10145;49.152;9.282;2022-12-07T10:38:27;5.80;99.90
19968;DHT22;10145;49.152;9.282;2022-12-07T10:41:05;5.70;99.90
19968;DHT22;10145;49.152;9.282;2022-12-07T10:43:30;5.70;99.90
19968;DHT22;10145;49.152;9.282;2022-12-07T10:52:25;5.70;99.90
19968;DHT22;10145;49.152;9.282;2022-12-07T11:00:37;5.40;99.90
19968;DHT22;10145;49.152;9.282;2022-12-07T11:06:10;5.50;99.90
19968;DHT22;10145;49.152;9.282;2022-12-07T11:17:18;5.30;99.90
19968;DHT22;10145;49.152;9.282;2022-12-07T11:20:15;5.20;99.90
19968;DHT22;10145;49.152;9.282;2022-12-07T11:22:56;5.30;99.90
19968;DHT22;10145;49.152;9.282;2022-12-07T11:28:27;5.20;99.90
19968;DHT22;10145;49.152;9.282;2022-12-07T11:31:06;5.20;99.90
19968;DHT22;10145;49.152;9.282;2022-12-07T11:36:35;5.30;99.90
19968;DHT22;10145;49.152;9.282;2022-12-07T11:41:52;5.40;99.90
19968;DHT22;10145;49.152;9.282;2022-12-07T11:44:47;5.40;99.90
19968;DHT22;10145;49.152;9.282;2022-12-07T11:52:51;5.60;99.90
19968;DHT22;10145;49.152;9.282;2022-12-07T11:55:27;5.80;99.90
19968;DHT22;10145;49.152;9.282;2022-12-07T11:58:10;5.80;99.90
19968;DHT22;10145;49.152;9.282;2022-12-07T12:00:39;5.80;99.90
19968;DHT22;10145;49.152;9.282;2022-12-07T12:03:12;5.90;99.90
19968;DHT22;10145;49.152;9.282;2022-12-07T12:05:41;5.80;99.90
19968;DHT22;10145;49.152;9.282;2022-12-07T12:08:17;5.90;99.90
19968;DHT22;10145;49.152;9.282;2022-12-07T12:16:53;6.00;99.90
19968;DHT22;10145;49.152;9.282;2022-12-07T12:26:05;5.60;99.90
19968;DHT22;10145;49.152;9.282;2022-12-07T12:28:52;5.50;99.90
19968;DHT22;10145;49.152;9.282;2022-12-07T12:33:53;5.40;99.90
19968;DHT22;10145;49.152;9.282;2022-12-07T12:36:21;5.40;99.90
19968;DHT22;10145;49.152;9.282;2022-12-07T12:39:08;5.40;99.90
19968;DHT22;10145;49.152;9.282;2022-12-07T12:46:52;5.50;99.90
19968;DHT22;10145;49.152;9.282;2022-12-07T12:51:53;5.70;99.90
19968;DHT22;10145;49.152;9.282;2022-12-07T12:54:25;5.80;99.90
19968;DHT22;10145;49.152;9.282;2022-12-07T12:57:10;6.00;99.90
19968;DHT22;10145;49.152;9.282;2022-12-07T13:04:52;6.00;99.90
19968;DHT22;10145;49.152;9.282;2022-12-07T13:18:36;5.70;99.90
19968;DHT22;10145;49.152;9.282;2022-12-07T13:23:59;5.60;99.90
19968;DHT22;10145;49.152;9.282;2022-12-07T13:26:36;5.50;99.90
19968;DHT22;10145;49.152;9.282;2022-12-07T13:29:16;5.50;99.90
19968;DHT22;10145;49.152;9.282;2022-12-07T13:31:56;5.50;99.90
19968;DHT22;10145;49.152;9.282;2022-12-07T13:34:39;5.60;99.90
19968;DHT22;10145;49.152;9.282;2022-12-07T13:37:12;5.60;99.90
19968;DHT22;10145;49.152;9.282;2022-12-07T13:39:49;5.70;99.90
19968;DHT22;10145;49.152;9.282;2022-12-07T13:42:34;5.80;99.90
19968;DHT22;10145;49.152;9.282;2022-12-07T13:45:24;5.80;99.90
19968;DHT22;10145;49.152;9.282;2022-12-07T13:48:27;5.90;99.90
19968;DHT22;10145;49.152;9.282;2022-12-07T13:50:56;5.80;99.90
19968;DHT22;10145;49.152;9.282;2022-12-07T13:53:23;5.80;99.90
19968;DHT22;10145;49.152;9.282;2022-12-07T13:55:49;5.80;99.90
19968;DHT22;10145;49.152;9.282;2022-12-07T13:58:15;5.70;99.90
19968;DHT22;10145;49.152;9.282;2022-12-07T14:00:41;5.70;99.90
19968;DHT22;10145;49.152;9.282;2022-12-07T14:05:40;5.60;99.90
19968;DHT22;10145;49.152;9.282;2022-12-07T14:13:31;5.50;99.90
19968;DHT22;10145;49.152;9.282;2022-12-07T14:16:00;5.40;99.90
19968;DHT22;10145;49.152;9.282;2022-12-07T14:18:27;5.40;99.90
19968;DHT22;10145;49.152;9.282;2022-12-07T14:21:15;5.40;99.90
19968;DHT22;10145;49.152;9.282;2022-12-07T14:23:41;5.40;99.90
19968;DHT22;10145;49.152;9.282;2022-12-07T14:26:12;5.30;99.90
19968;DHT22;10145;49.152;9.282;2022-12-07T14:28:42;5.50;99.90
19968;DHT22;10145;49.152;9.282;2022-12-07T14:33:39;5.30;99.90
19968;DHT22;10145;49.152;9.282;2022-12-07T14:36:07;5.20;99.90
19968;DHT22;10145;49.152;9.282;2022-12-07T14:38:33;5.10;99.90
19968;DHT22;10145;49.152;9.282;2022-12-07T14:40:59;5.00;99.90
19968;DHT22;10145;49.152;9.282;2022-12-07T14:43:45;5.00;99.90
19968;DHT22;10145;49.152;9.282;2022-12-07T14:46:11;4.90;99.90
19968;DHT22;10145;49.152;9.282;2022-12-07T14:48:36;4.90;99.90
19968;DHT22;10145;49.152;9.282;2022-12-07T14:51:03;4.90;99.90
19968;DHT22;10145;49.152;9.282;2022-12-07T14:53:33;4.90;99.90
19968;DHT22;10145;49.152;9.282;2022-12-07T14:56:00;4.90;99.90
19968;DHT22;10145;49.152;9.282;2022-12-07T14:58:25;4.90;99.90
19968;DHT22;10145;49.152;9.282;2022-12-07T15:00:51;4.90;99.90
19968;DHT22;10145;49.152;9.282;2022-12-07T15:03:16;4.90;99.90
19968;DHT22;10145;49.152;9.282;2022-12-07T15:05:42;4.80;99.90
19968;DHT22;10145;49.152;9.282;2022-12-07T15:08:14;4.80;99.90
19968;DHT22;10145;49.152;9.282;2022-12-07T15:10:39;4.80;99.90
19968;DHT22;10145;49.152;9.282;2022-12-07T15:13:06;4.80;99.90
19968;DHT22;10145;49.152;9.282;2022-12-07T15:15:51;4.80;99.90
19968;DHT22;10145;49.152;9.282;2022-12-07T15:18:18;4.70;99.90
19968;DHT22;10145;49.152;9.282;2022-12-07T15:20:45;4.70;99.90
19968;DHT22;10145;49.152;9.282;2022-12-07T15:23:11;4.60;99.90
19968;DHT22;10145;49.152;9.282;2022-12-07T15:25:44;4.60;99.90
19968;DHT22;10145;49.152;9.282;2022-12-07T15:28:09;4.60;99.90
19968;DHT22;10145;49.152;9.282;2022-12-07T15:30:37;4.60;99.90
19968;DHT22;10145;49.152;9.282;2022-12-07T15:33:03;4.50;99.90
19968;DHT22;10145;49.152;9.282;2022-12-07T15:35:28;4.50;99.90
19968;DHT22;10145;49.152;9.282;2022-12-07T15:37:54;4.50;99.90
19968;DHT22;10145;49.152;9.282;2022-12-07T15:40:19;4.50;99.90
19968;DHT22;10145;49.152;9.282;2022-12-07T15:42:45;4.50;99.90
19968;DHT22;10145;49.152;9.282;2022-12-07T15:45:10;4.50;99.90
19968;DHT22;10145;49.152;9.282;2022-12-07T15:47:41;4.50;99.90
19968;DHT22;10145;49.152;9.282;2022-12-07T15:50:12;4.50;99.90
19968;DHT22;10145;49.152;9.282;2022-12-07T15:52:38;4.40;99.90
19968;DHT22;10145;49.152;9.282;2022-12-07T15:55:05;4.40;99.90
19968;DHT22;10145;49.152;9.282;2022-12-07T15:57:32;4.40;99.90
19968;DHT22;10145;49.152;9.282;2022-12-07T15:59:58;4.30;99.90
19968;DHT22;10145;49.152;9.282;2022-12-07T16:02:24;4.30;99.90
19968;DHT22;10145;49.152;9.282;2022-12-07T16:04:51;4.30;99.90
19968;DHT22;10145;49.152;9.282;2022-12-07T16:07:17;4.20;99.90
19968;DHT22;10145;49.152;9.282;2022-12-07T16:09:44;4.20;99.90
19968;DHT22;10145;49.152;9.282;2022-12-07T16:12:10;4.20;99.90
19968;DHT22;10145;49.152;9.282;2022-12-07T16:14:37;4.20;99.90
19968;DHT22;10145;49.152;9.282;2022-12-07T16:17:03;4.20;99.90
19968;DHT22;10145;49.152;9.282;2022-12-07T16:19:30;4.20;99.90
19968;DHT22;10145;49.152;9.282;2022-12-07T16:21:56;4.10;99.90
19968;DHT22;10145;49.152;9.282;2022-12-07T16:24:22;4.10;99.90
19968;DHT22;10145;49.152;9.282;2022-12-07T16:26:47;4.10;99.90
19968;DHT22;10145;49.152;9.282;2022-12-07T16:29:13;4.10;99.90
19968;DHT22;10145;49.152;9.282;2022-12-07T16:31:40;4.10;99.90
19968;DHT22;10145;49.152;9.282;2022-12-07T16:34:06;4.10;99.90
19968;DHT22;10145;49.152;9.282;2022-12-07T16:36:32;4.10;99.90
19968;DHT22;10145;49.152;9.282;2022-12-07T16:38:59;4.10;99.90
19968;DHT22;10145;49.152;9.282;2022-12-07T16:41:24;4.10;99.90
19968;DHT22;10145;49.152;9.282;2022-12-07T16:43:50;4.10;99.90
19968;DHT22;10145;49.152;9.282;2022-12-07T16:46:16;4.10;99.90
19968;DHT22;10145;49.152;9.282;2022-12-07T16:48:42;4.10;99.90
19968;DHT22;10145;49.152;9.282;2022-12-07T16:51:10;4.10;99.90
19968;DHT22;10145;49.152;9.282;2022-12-07T16:53:37;4.10;99.90
19968;DHT22;10145;49.152;9.282;2022-12-07T16:56:03;4.00;99.90
19968;DHT22;10145;49.152;9.282;2022-12-07T16:58:29;4.00;99.90
19968;DHT22;10145;49.152;9.282;2022-12-07T17:00:55;4.00;99.90
19968;DHT22;10145;49.152;9.282;2022-12-07T17:03:21;4.10;99.90
19968;DHT22;10145;49.152;9.282;2022-12-07T17:05:47;4.00;99.90
19968;DHT22;10145;49.152;9.282;2022-12-07T17:08:14;4.00;99.90
19968;DHT22;10145;49.152;9.282;2022-12-07T17:10:41;4.00;99.90
19968;DHT22;10145;49.152;9.282;2022-12-07T17:13:07;4.00;99.90
19968;DHT22;10145;49.152;9.282;2022-12-07T17:16:01;4.00;99.90
19968;DHT22;10145;49.152;9.282;2022-12-07T17:18:34;4.00;99.90
19968;DHT22;10145;49.152;9.282;2022-12-07T17:21:06;4.00;99.90
19968;DHT22;10145;49.152;9.282;2022-12-07T17:23:32;4.00;99.90
19968;DHT22;10145;49.152;9.282;2022-12-07T17:26:10;4.00;99.90
19968;DHT22;10145;49.152;9.282;2022-12-07T17:28:36;4.00;99.90
19968;DHT22;10145;49.152;9.282;2022-12-07T17:31:05;3.90;99.90
19968;DHT22;10145;49.152;9.282;2022-12-07T17:33:31;3.90;99.90
19968;DHT22;10145;49.152;9.282;2022-12-07T17:35:57;3.90;99.90
19968;DHT22;10145;49.152;9.282;2022-12-07T17:38:22;3.90;99.90
19968;DHT22;10145;49.152;9.282;2022-12-07T17:40:48;3.90;99.90
19968;DHT22;10145;49.152;9.282;2022-12-07T17:43:14;3.90;99.90
19968;DHT22;10145;49.152;9.282;2022-12-07T17:45:39;3.90;99.90
19968;DHT22;10145;49.152;9.282;2022-12-07T17:48:05;3.90;99.90
19968;DHT22;10145;49.152;9.282;2022-12-07T17:50:30;3.90;99.90
19968;DHT22;10145;49.152;9.282;2022-12-07T17:53:29;3.90;99.90
19968;DHT22;10145;49.152;9.282;2022-12-07T17:55:55;3.80;99.90
19968;DHT22;10145;49.152;9.282;2022-12-07T17:58:20;3.80;99.90
19968;DHT22;10145;49.152;9.282;2022-12-07T18:00:46;3.90;99.90
19968;DHT22;10145;49.152;9.282;2022-12-07T18:03:11;3.90;99.90
19968;DHT22;10145;49.152;9.282;2022-12-07T18:05:37;3.90;99.90
19968;DHT22;10145;49.152;9.282;2022-12-07T18:08:04;3.80;99.90
19968;DHT22;10145;49.152;9.282;2022-12-07T18:10:30;3.90;99.90
19968;DHT22;10145;49.152;9.282;2022-12-07T18:12:56;3.90;99.90
19968;DHT22;10145;49.152;9.282;2022-12-07T18:15:42;3.80;99.90
19968;DHT22;10145;49.152;9.282;2022-12-07T18:18:08;3.80;99.90
19968;DHT22;10145;49.152;9.282;2022-12-07T18:20:34;3.80;99.90
19968;DHT22;10145;49.152;9.282;2022-12-07T18:22:59;3.80;99.90
19968;DHT22;10145;49.152;9.282;2022-12-07T18:25:25;3.80;99.90
19968;DHT22;10145;49.152;9.282;2022-12-07T18:27:50;3.80;99.90
19968;DHT22;10145;49.152;9.282;2022-12-07T18:30:16;3.80;99.90
19968;DHT22;10145;49.152;9.282;2022-12-07T18:32:41;3.80;99.90
19968;DHT22;10145;49.152;9.282;2022-12-07T18:35:07;3.80;99.90
19968;DHT22;10145;49.152;9.282;2022-12-07T18:37:33;3.80;99.90
19968;DHT22;10145;49.152;9.282;2022-12-07T18:39:58;3.80;99.90
19968;DHT22;10145;49.152;9.282;2022-12-07T18:42:24;3.70;99.90
19968;DHT22;10145;49.152;9.282;2022-12-07T18:44:49;3.70;99.90
19968;DHT22;10145;49.152;9.282;2022-12-07T18:47:15;3.80;99.90
19968;DHT22;10145;49.152;9.282;2022-12-07T18:49:41;3.80;99.90
19968;DHT22;10145;49.152;9.282;2022-12-07T18:52:06;3.80;99.90
19968;DHT22;10145;49.152;9.282;2022-12-07T18:54:32;3.80;99.90
19968;DHT22;10145;49.152;9.282;2022-12-07T18:56:57;3.80;99.90
19968;DHT22;10145;49.152;9.282;2022-12-07T18:59:23;3.80;99.90
19968;DHT22;10145;49.152;9.282;2022-12-07T19:02:08;3.80;99.90
19968;DHT22;10145;49.152;9.282;2022-12-07T19:04:34;3.80;99.90
19968;DHT22;10145;49.152;9.282;2022-12-07T19:06:59;3.80;99.90
19968;DHT22;10145;49.152;9.282;2022-12-07T19:09:25;3.80;99.90
19968;DHT22;10145;49.152;9.282;2022-12-07T19:11:51;3.80;99.90
19968;DHT22;10145;49.152;9.282;2022-12-07T19:14:22;3.80;99.90
19968;DHT22;10145;49.152;9.282;2022-12-07T19:16:50;3.80;99.90
19968;DHT22;10145;49.152;9.282;2022-12-07T19:19:18;3.80;99.90
19968;DHT22;10145;49.152;9.282;2022-12-07T19:21:44;3.70;99.90
19968;DHT22;10145;49.152;9.282;2022-12-07T19:24:10;3.70;99.90
19968;DHT22;10145;49.152;9.282;2022-12-07T19:26:36;3.70;99.90
19968;DHT22;10145;49.152;9.282;2022-12-07T19:29:01;3.70;99.90
19968;DHT22;10145;49.152;9.282;2022-12-07T19:31:30;3.70;99.90
19968;DHT22;10145;49.152;9.282;2022-12-07T19:33:55;3.70;99.90
19968;DHT22;10145;49.152;9.282;2022-12-07T19:36:21;3.70;99.90
19968;DHT22;10145;49.152;9.282;2022-12-07T19:38:49;3.70;99.90
19968;DHT22;10145;49.152;9.282;2022-12-07T19:41:17;3.70;99.90
19968;DHT22;10145;49.152;9.282;2022-12-07T19:44:17;3.70;99.90
19968;DHT22;10145;49.152;9.282;2022-12-07T19:46:44;3.70;99.90
19968;DHT22;10145;49.152;9.282;2022-12-07T19:49:11;3.70;99.90
19968;DHT22;10145;49.152;9.282;2022-12-07T19:51:41;3.70;99.90
19968;DHT22;10145;49.152;9.282;2022-12-07T19:54:08;3.70;99.90
19968;DHT22;10145;49.152;9.282;2022-12-07T19:56:34;3.70;99.90
19968;DHT22;10145;49.152;9.282;2022-12-07T19:59:00;3.70;99.90
19968;DHT22;10145;49.152;9.282;2022-12-07T20:01:27;3.70;99.90
19968;DHT22;10145;49.152;9.282;2022-12-07T20:03:53;3.80;99.90
19968;DHT22;10145;49.152;9.282;2022-12-07T20:06:19;3.70;99.90
19968;DHT22;10145;49.152;9.282;2022-12-07T20:08:46;3.70;99.90
19968;DHT22;10145;49.152;9.282;2022-12-07T20:11:13;3.70;99.90
19968;DHT22;10145;49.152;9.282;2022-12-07T20:13:57;3.70;99.90
19968;DHT22;10145;49.152;9.282;2022-12-07T20:16:23;3.70;99.90
19968;DHT22;10145;49.152;9.282;2022-12-07T20:18:49;3.70;99.90
19968;DHT22;10145;49.152;9.282;2022-12-07T20:21:15;3.80;99.90
19968;DHT22;10145;49.152;9.282;2022-12-07T20:23:41;3.80;99.90
19968;DHT22;10145;49.152;9.282;2022-12-07T20:26:09;3.70;99.90
19968;DHT22;10145;49.152;9.282;2022-12-07T20:28:35;3.70;99.90
19968;DHT22;10145;49.152;9.282;2022-12-07T20:31:01;3.70;99.90
19968;DHT22;10145;49.152;9.282;2022-12-07T20:33:27;3.70;99.90
19968;DHT22;10145;49.152;9.282;2022-12-07T20:36:01;3.70;99.90
19968;DHT22;10145;49.152;9.282;2022-12-07T20:38:28;3.70;99.90
19968;DHT22;10145;49.152;9.282;2022-12-07T20:41:00;3.70;99.90
19968;DHT22;10145;49.152;9.282;2022-12-07T20:43:26;3.70;99.90
19968;DHT22;10145;49.152;9.282;2022-12-07T20:45:52;3.60;99.90
19968;DHT22;10145;49.152;9.282;2022-12-07T20:48:17;3.60;99.90
19968;DHT22;10145;49.152;9.282;2022-12-07T20:50:43;3.50;99.90
19968;DHT22;10145;49.152;9.282;2022-12-07T20:53:09;3.50;99.90
19968;DHT22;10145;49.152;9.282;2022-12-07T20:55:35;3.50;99.90
19968;DHT22;10145;49.152;9.282;2022-12-07T20:58:01;3.60;99.90
19968;DHT22;10145;49.152;9.282;2022-12-07T21:00:27;3.50;99.90
19968;DHT22;10145;49.152;9.282;2022-12-07T21:02:52;3.50;99.90
19968;DHT22;10145;49.152;9.282;2022-12-07T21:05:18;3.50;99.90
19968;DHT22;10145;49.152;9.282;2022-12-07T21:07:45;3.60;99.90
19968;DHT22;10145;49.152;9.282;2022-12-07T21:10:11;3.50;99.90
19968;DHT22;10145;49.152;9.282;2022-12-07T21:12:36;3.50;99.90
19968;DHT22;10145;49.152;9.282;2022-12-07T21:15:04;3.50;99.90
19968;DHT22;10145;49.152;9.282;2022-12-07T21:17:30;3.50;99.90
19968;DHT22;10145;49.152;9.282;2022-12-07T21:19:55;3.40;99.90
19968;DHT22;10145;49.152;9.282;2022-12-07T21:22:21;3.40;99.90
19968;DHT22;10145;49.152;9.282;2022-12-07T21:24:46;3.40;99.90
19968;DHT22;10145;49.152;9.282;2022-12-07T21:27:12;3.40;99.90
19968;DHT22;10145;49.152;9.282;2022-12-07T21:29:38;3.40;99.90
19968;DHT22;10145;49.152;9.282;2022-12-07T21:32:03;3.40;99.90
19968;DHT22;10145;49.152;9.282;2022-12-07T21:34:29;3.40;99.90
19968;DHT22;10145;49.152;9.282;2022-12-07T21:36:55;3.40;99.90
19968;DHT22;10145;49.152;9.282;2022-12-07T21:39:21;3.40;99.90
19968;DHT22;10145;49.152;9.282;2022-12-07T21:41:46;3.40;99.90
19968;DHT22;10145;49.152;9.282;2022-12-07T21:44:12;3.40;99.90
19968;DHT22;10145;49.152;9.282;2022-12-07T21:46:38;3.40;99.90
19968;DHT22;10145;49.152;9.282;2022-12-07T21:49:10;3.30;99.90
19968;DHT22;10145;49.152;9.282;2022-12-07T21:51:36;3.30;99.90
19968;DHT22;10145;49.152;9.282;2022-12-07T21:54:03;3.30;99.90
19968;DHT22;10145;49.152;9.282;2022-12-07T21:56:34;3.20;99.90
19968;DHT22;10145;49.152;9.282;2022-12-07T21:59:04;3.20;99.90
19968;DHT22;10145;49.152;9.282;2022-12-07T22:01:31;3.20;99.90
19968;DHT22;10145;49.152;9.282;2022-12-07T22:04:07;3.20;99.90
19968;DHT22;10145;49.152;9.282;2022-12-07T22:06:34;3.10;99.90
19968;DHT22;10145;49.152;9.282;2022-12-07T22:09:00;3.10;99.90
19968;DHT22;10145;49.152;9.282;2022-12-07T22:11:26;3.10;99.90
19968;DHT22;10145;49.152;9.282;2022-12-07T22:13:51;3.10;99.90
19968;DHT22;10145;49.152;9.282;2022-12-07T22:16:35;3.00;99.90
19968;DHT22;10145;49.152;9.282;2022-12-07T22:19:01;3.00;99.90
19968;DHT22;10145;49.152;9.282;2022-12-07T22:21:29;2.90;99.90
19968;DHT22;10145;49.152;9.282;2022-12-07T22:23:54;2.80;99.90
19968;DHT22;10145;49.152;9.282;2022-12-07T22:26:20;2.70;99.90